Time;durP1;ratioP1;P1;durP2;ratioP2;P2;SDS_P1;SDS_P2;PMS_P1;PMS_P2;Temp;Humidity;BMP_temperature;BMP_pressure;BME280_temperature;BME280_humidity;BME280_pressure;Samples;Min_cycle;Max_cycle;Signal;HPM_P1;HPM_P2
2021/12/17 00:01:13;;;;;;;3.92;3.10;;;21.40;43.30;;;;;;5042629;28;20075;-52
2021/12/17 00:03:48;;;;;;;4.00;3.50;;;21.40;43.30;;;;;;5040699;28;20040;-54
2021/12/17 00:08:52;;;;;;;4.05;2.85;;;21.40;43.30;;;;;;5038438;28;20021;-53
2021/12/17 00:11:19;;;;;;;4.20;3.33;;;21.40;43.30;;;;;;5040105;28;20025;-54
2021/12/17 00:13:46;;;;;;;3.83;3.20;;;21.40;43.30;;;;;;5043858;28;20331;-54
2021/12/17 00:16:21;;;;;;;3.67;2.92;;;21.40;43.20;;;;;;5046279;28;20037;-57
2021/12/17 00:19:01;;;;;;;4.90;3.40;;;21.40;43.20;;;;;;5027153;28;20021;-51
2021/12/17 00:48:40;;;;;;;5.10;3.28;;;21.20;43.40;;;;;;5045927;28;20330;-52
2021/12/17 00:51:59;;;;;;;3.95;3.00;;;21.20;43.40;;;;;;5044943;28;20017;-52
2021/12/17 00:54:01;;;;;;;4.65;3.50;;;21.20;43.40;;;;;;5036494;28;20032;-53
2021/12/17 00:56:28;;;;;;;4.05;3.17;;;21.20;43.40;;;;;;5026695;28;20467;-54
2021/12/17 00:58:55;;;;;;;5.90;3.65;;;21.20;43.40;;;;;;5019545;28;20439;-53
2021/12/17 01:01:21;;;;;;;4.07;3.03;;;21.20;43.40;;;;;;5006164;28;20034;-51
2021/12/17 01:03:49;;;;;;;4.78;3.40;;;21.20;43.40;;;;;;5005312;28;20410;-52
2021/12/17 01:06:15;;;;;;;4.65;3.50;;;21.20;43.40;;;;;;5004075;28;20100;-53
2021/12/17 01:08:41;;;;;;;4.55;3.67;;;21.20;43.40;;;;;;5003377;28;20037;-60
2021/12/17 01:11:11;;;;;;;4.85;3.80;;;21.20;43.40;;;;;;5002759;28;20031;-57
2021/12/17 01:13:46;;;;;;;5.22;3.88;;;21.20;43.40;;;;;;5006899;28;20022;-57
2021/12/17 01:16:27;;;;;;;5.32;4.00;;;21.20;43.40;;;;;;5019175;28;20045;-49
2021/12/17 01:19:21;;;;;;;5.05;4.10;;;21.20;43.40;;;;;;5002728;28;20061;-52
2021/12/17 01:43:23;;;;;;;5.35;4.10;;;21.10;43.50;;;;;;5003313;28;20081;-53
2021/12/17 01:45:49;;;;;;;4.85;3.65;;;21.10;43.50;;;;;;5004107;28;20350;-51
2021/12/17 01:48:20;;;;;;;4.85;3.85;;;21.10;43.50;;;;;;5019230;28;20026;-48
2021/12/17 02:01:37;;;;;;;3.13;2.50;;;21.20;43.30;;;;;;5017223;28;20033;-52
2021/12/17 02:04:04;;;;;;;3.80;3.17;;;21.20;43.30;;;;;;5018051;28;20045;-53
2021/12/17 02:06:35;;;;;;;3.33;2.53;;;21.20;43.30;;;;;;5005476;28;20081;-52
2021/12/17 02:09:01;;;;;;;3.42;2.58;;;21.20;43.30;;;;;;5002997;28;20022;-54
2021/12/17 02:19:59;;;;;;;3.70;2.50;;;21.30;43.20;;;;;;5004440;28;19916;-48
2021/12/17 02:31:23;;;;;;;2.67;1.98;;;21.20;43.20;;;;;;5018263;28;20481;-52
2021/12/17 02:33:33;;;;;;;2.08;1.80;;;21.30;43.20;;;;;;4997634;28;20357;-53
2021/12/17 02:36:00;;;;;;;2.60;1.90;;;21.30;43.10;;;;;;5002870;28;20023;-51
2021/12/17 02:38:29;;;;;;;2.22;1.63;;;21.30;43.00;;;;;;5001895;28;20037;-54
2021/12/17 02:47:04;;;;;;;2.05;1.83;;;21.30;42.90;;;;;;5003190;28;20038;-50
2021/12/17 02:49:30;;;;;;;2.03;1.85;;;21.30;42.90;;;;;;5019074;28;20510;-51
2021/12/17 02:51:58;;;;;;;2.30;1.80;;;21.30;43.00;;;;;;5003449;28;20022;-50
2021/12/17 02:54:25;;;;;;;2.40;1.70;;;21.30;43.10;;;;;;5003228;28;20041;-51
2021/12/17 02:56:50;;;;;;;2.35;1.80;;;21.30;43.00;;;;;;5002146;28;20024;-55
2021/12/17 02:59:17;;;;;;;1.92;1.65;;;21.30;43.00;;;;;;5016260;28;20046;-52
2021/12/17 03:01:45;;;;;;;1.95;1.63;;;21.30;43.00;;;;;;5003976;28;20516;-55
2021/12/17 03:04:13;;;;;;;1.98;1.77;;;21.20;43.00;;;;;;5001681;28;20030;-49
2021/12/17 03:06:41;;;;;;;1.83;1.63;;;21.20;43.00;;;;;;5001378;28;20081;-48
2021/12/17 03:09:07;;;;;;;1.75;1.60;;;21.20;43.10;;;;;;5005790;28;20026;-52
2021/12/17 03:11:33;;;;;;;2.25;1.85;;;21.20;43.10;;;;;;5003433;28;20041;-52
2021/12/17 03:13:59;;;;;;;2.80;2.15;;;21.20;43.20;;;;;;5000665;28;20022;-53
2021/12/17 03:16:34;;;;;;;2.75;2.17;;;21.20;43.20;;;;;;5002562;28;20358;-54
2021/12/17 03:19:07;;;;;;;2.35;1.80;;;21.20;43.20;;;;;;5003446;28;20664;-51
2021/12/17 03:24:18;;;;;;;2.13;1.80;;;21.10;43.20;;;;;;5002283;28;20017;-51
2021/12/17 03:26:47;;;;;;;2.42;1.95;;;21.10;43.20;;;;;;5000613;28;20042;-55
2021/12/17 03:29:14;;;;;;;2.70;2.08;;;21.10;43.20;;;;;;5005253;28;20056;-50
2021/12/17 03:31:44;;;;;;;3.40;2.10;;;21.10;43.30;;;;;;5015392;28;20133;-53
2021/12/17 03:36:36;;;;;;;3.15;2.08;;;21.00;43.30;;;;;;5002613;28;20072;-51
2021/12/17 03:39:03;;;;;;;2.15;1.80;;;21.00;43.30;;;;;;5002321;28;20126;-52
2021/12/17 03:41:36;;;;;;;2.60;2.00;;;21.00;43.30;;;;;;4999707;28;20057;-54
2021/12/17 03:44:05;;;;;;;2.20;1.80;;;21.00;43.30;;;;;;5002075;28;20033;-55
2021/12/17 03:46:52;;;;;;;2.40;1.83;;;21.00;43.30;;;;;;5005610;28;20038;-47
2021/12/17 03:49:20;;;;;;;2.40;2.00;;;21.00;43.30;;;;;;5005826;28;20079;-49
2021/12/17 03:52:04;;;;;;;3.20;2.20;;;21.10;43.40;;;;;;5021575;28;20033;-49
2021/12/17 03:54:35;;;;;;;2.80;1.80;;;21.10;43.30;;;;;;5020450;28;20019;-50
2021/12/17 03:57:04;;;;;;;2.58;1.83;;;21.10;43.20;;;;;;5005383;28;20018;-49
2021/12/17 03:59:31;;;;;;;2.42;1.83;;;21.20;43.20;;;;;;5005834;28;20069;-53
2021/12/17 04:01:57;;;;;;;2.50;1.80;;;21.20;43.20;;;;;;5007964;28;20029;-56
2021/12/17 04:04:24;;;;;;;3.05;1.75;;;21.20;43.10;;;;;;5003497;28;20449;-55
2021/12/17 04:07:06;;;;;;;2.40;2.00;;;21.20;43.10;;;;;;5007229;28;20045;-54
2021/12/17 04:09:45;;;;;;;2.30;1.80;;;21.20;43.00;;;;;;5004282;28;20022;-53
2021/12/17 04:12:19;;;;;;;2.38;1.83;;;21.20;43.00;;;;;;5004172;28;20037;-53
2021/12/17 04:15:04;;;;;;;2.65;1.85;;;21.20;42.90;;;;;;5005458;28;20369;-56
2021/12/17 04:17:38;;;;;;;1.90;1.65;;;21.20;42.90;;;;;;5006750;28;20021;-55
2021/12/17 04:20:05;;;;;;;2.47;1.85;;;21.30;42.90;;;;;;5002728;28;20026;-57
2021/12/17 04:22:31;;;;;;;4.35;2.00;;;21.30;42.90;;;;;;5006893;28;20034;-56
2021/12/17 04:24:57;;;;;;;2.75;2.10;;;21.30;42.90;;;;;;5007273;28;20338;-52
2021/12/17 04:27:26;;;;;;;2.30;2.00;;;21.30;42.90;;;;;;5005267;28;20108;-53
2021/12/17 04:29:55;;;;;;;2.63;2.03;;;21.30;42.80;;;;;;5002815;28;20030;-49
2021/12/17 04:32:21;;;;;;;3.03;2.20;;;21.30;42.80;;;;;;5002473;28;20018;-51
2021/12/17 04:34:47;;;;;;;2.10;1.70;;;21.30;42.80;;;;;;5006365;28;20018;-49
2021/12/17 04:37:13;;;;;;;2.78;2.08;;;21.30;42.80;;;;;;5003209;28;20109;-53
2021/12/17 04:39:52;;;;;;;2.25;1.77;;;21.30;42.70;;;;;;5003749;28;20306;-49
2021/12/17 04:42:30;;;;;;;2.80;1.90;;;21.30;42.70;;;;;;5006019;28;20065;-52
2021/12/17 04:44:58;;;;;;;2.25;1.90;;;21.30;42.70;;;;;;5018643;28;20141;-54
2021/12/17 04:58:30;;;;;;;2.25;1.45;;;21.40;42.60;;;;;;5005538;28;20034;-51
2021/12/17 05:00:58;;;;;;;2.03;1.63;;;21.30;42.50;;;;;;5022532;28;20033;-51
2021/12/17 05:03:24;;;;;;;2.63;1.85;;;21.40;42.60;;;;;;5026284;28;20481;-51
2021/12/17 05:05:52;;;;;;;2.38;1.92;;;21.40;42.50;;;;;;5023613;28;20044;-54
2021/12/17 05:08:24;;;;;;;2.25;1.90;;;21.40;42.50;;;;;;5027609;28;20041;-55
2021/12/17 05:21:38;;;;;;;2.78;1.98;;;21.40;42.50;;;;;;5010718;28;20027;-51
2021/12/17 05:24:05;;;;;;;2.40;1.80;;;21.40;42.50;;;;;;5026988;28;20343;-51
2021/12/17 05:26:31;;;;;;;2.53;2.08;;;21.40;42.50;;;;;;5024949;28;20033;-47
2021/12/17 05:28:58;;;;;;;2.47;1.83;;;21.40;42.50;;;;;;5041808;28;20017;-51
2021/12/17 05:31:29;;;;;;;3.17;2.20;;;21.40;42.50;;;;;;5019201;28;20029;-51
2021/12/17 05:33:59;;;;;;;2.92;2.10;;;21.40;42.40;;;;;;5019761;28;20105;-51
2021/12/17 05:36:33;;;;;;;2.65;2.05;;;21.40;42.50;;;;;;5040828;28;20104;-54
2021/12/17 05:39:08;;;;;;;2.85;2.15;;;21.40;42.50;;;;;;5026848;28;20444;-50
2021/12/17 05:41:35;;;;;;;2.70;2.00;;;21.40;42.50;;;;;;5041589;28;20026;-49
2021/12/17 05:44:21;;;;;;;2.47;1.80;;;21.40;42.50;;;;;;5043139;28;20098;-52
2021/12/17 05:46:50;;;;;;;2.05;1.75;;;21.40;42.50;;;;;;5041371;28;20064;-50
2021/12/17 05:49:20;;;;;;;2.58;2.08;;;21.40;42.50;;;;;;5027332;28;20059;-50
2021/12/17 05:51:47;;;;;;;2.90;1.98;;;21.40;42.50;;;;;;5045579;28;20044;-53
2021/12/17 05:54:13;;;;;;;2.63;2.00;;;21.40;42.50;;;;;;5041847;28;20049;-52
2021/12/17 05:56:40;;;;;;;2.47;2.00;;;21.40;42.40;;;;;;5025583;28;20395;-53
2021/12/17 05:59:07;;;;;;;2.35;2.05;;;21.40;42.40;;;;;;5026499;28;20335;-50
2021/12/17 06:01:34;;;;;;;2.85;1.98;;;21.40;42.50;;;;;;5044735;28;20036;-55
2021/12/17 06:04:00;;;;;;;2.08;1.67;;;21.40;42.50;;;;;;5026914;28;20044;-50
2021/12/17 06:06:35;;;;;;;2.67;2.03;;;21.40;42.50;;;;;;5022866;28;20397;-52
2021/12/17 06:09:05;;;;;;;2.47;1.90;;;21.40;43.10;;;;;;5024595;28;20083;-53
2021/12/17 06:11:33;;;;;;;3.05;2.17;;;21.40;42.50;;;;;;5026994;28;20458;-55
2021/12/17 06:13:59;;;;;;;2.67;1.90;;;21.40;42.50;;;;;;5025285;28;20029;-51
2021/12/17 06:16:33;;;;;;;2.55;1.95;;;21.40;42.40;;;;;;5025389;28;20057;-49
2021/12/17 06:19:01;;;;;;;3.20;1.98;;;21.40;42.40;;;;;;5024845;28;20060;-50
2021/12/17 06:21:27;;;;;;;3.47;2.50;;;21.40;42.40;;;;;;5026984;28;20021;-50
2021/12/17 06:23:53;;;;;;;2.78;2.38;;;21.40;42.40;;;;;;5025808;28;20028;-49
2021/12/17 06:26:19;;;;;;;3.20;2.03;;;21.40;42.40;;;;;;5025077;28;20057;-53
2021/12/17 06:28:49;;;;;;;3.53;2.53;;;21.40;42.40;;;;;;5042996;28;20036;-52
2021/12/17 06:31:17;;;;;;;4.55;2.80;;;21.40;42.40;;;;;;5028950;28;20021;-51
2021/12/17 06:33:43;;;;;;;3.13;2.50;;;21.30;42.50;;;;;;5041778;28;20021;-52
2021/12/17 06:36:09;;;;;;;3.45;2.50;;;21.30;42.60;;;;;;5036113;28;20021;-53
2021/12/17 06:38:35;;;;;;;3.10;2.47;;;21.20;42.60;;;;;;5027177;28;20113;-53
2021/12/17 06:41:02;;;;;;;2.95;2.20;;;21.20;42.60;;;;;;5018306;28;20021;-52
2021/12/17 06:43:36;;;;;;;2.63;2.03;;;21.20;42.70;;;;;;5026924;28;20018;-53
2021/12/17 06:46:54;;;;;;;3.97;2.65;;;21.20;42.70;;;;;;5025537;28;20031;-57
2021/12/17 06:48:56;;;;;;;2.92;2.22;;;21.20;43.40;;;;;;5011823;28;20360;-50
2021/12/17 07:34:10;;;;;;;;;;;20.90;43.40;;;;;;5025646;28;20048;-53
2021/12/17 07:39:20;;;;;;;3.75;2.58;;;20.80;43.40;;;;;;5035906;28;20040;-53
2021/12/17 07:42:16;;;;;;;3.08;2.20;;;20.80;43.40;;;;;;5028352;28;20049;-56
2021/12/17 07:44:51;;;;;;;2.95;1.95;;;20.80;43.50;;;;;;5028444;28;20021;-53
2021/12/17 07:47:31;;;;;;;3.28;1.90;;;20.70;43.50;;;;;;5040527;28;20033;-49
2021/12/17 07:50:16;;;;;;;2.25;1.40;;;20.80;43.50;;;;;;5042087;28;20044;-51
2021/12/17 07:52:57;;;;;;;4.43;2.05;;;20.80;43.50;;;;;;5042100;28;20029;-57
2021/12/17 07:55:23;;;;;;;5.90;1.73;;;20.70;43.60;;;;;;5025811;28;20351;-54
2021/12/17 07:57:50;;;;;;;3.35;1.98;;;20.70;43.60;;;;;;5024843;28;20041;-50
2021/12/17 08:00:21;;;;;;;3.90;2.08;;;20.70;43.70;;;;;;5022163;28;20376;-55
2021/12/17 08:02:48;;;;;;;2.08;1.73;;;20.80;43.70;;;;;;5020358;28;20112;-52
2021/12/17 08:05:34;;;;;;;2.28;1.58;;;20.80;43.80;;;;;;5036971;28;20108;-54
2021/12/17 08:08:04;;;;;;;2.15;1.70;;;20.70;43.80;;;;;;5017752;28;20033;-53
2021/12/17 08:10:32;;;;;;;2.08;1.52;;;20.80;43.80;;;;;;5032383;28;20060;-52
2021/12/17 08:12:58;;;;;;;1.80;1.25;;;20.80;43.60;;;;;;5018736;28;20018;-53
2021/12/17 08:15:31;;;;;;;2.13;1.30;;;20.90;43.60;;;;;;5044521;28;20374;-51
2021/12/17 08:26:26;;;;;;;1.20;0.90;;;21.40;43.20;;;;;;5039663;28;20013;-50
2021/12/17 08:29:11;;;;;;;1.48;1.02;;;21.40;43.00;;;;;;5028244;28;20029;-50
2021/12/17 08:31:38;;;;;;;1.52;0.75;;;21.60;42.90;;;;;;5024444;28;20117;-49
2021/12/17 08:34:05;;;;;;;1.30;1.08;;;21.70;42.70;;;;;;5022259;28;20504;-52
2021/12/17 08:36:33;;;;;;;1.30;0.80;;;21.80;42.50;;;;;;5025773;28;20451;-48
2021/12/17 08:39:00;;;;;;;1.80;0.95;;;21.90;42.40;;;;;;5028313;28;20471;-50
2021/12/17 08:41:30;;;;;;;1.08;0.80;;;22.00;42.30;;;;;;5028858;28;20424;-46
2021/12/17 08:43:58;;;;;;;0.57;0.57;;;22.10;42.20;;;;;;5029444;28;20028;-53
2021/12/17 08:46:25;;;;;;;0.85;0.75;;;22.20;42.10;;;;;;5025192;28;20075;-55
2021/12/17 08:49:04;;;;;;;0.60;0.52;;;22.20;42.00;;;;;;5041875;28;20018;-54
2021/12/17 08:51:39;;;;;;;0.90;0.70;;;22.30;41.90;;;;;;5026199;28;20025;-53
2021/12/17 08:54:08;;;;;;;1.10;0.70;;;22.40;41.80;;;;;;5027102;28;20331;-53
2021/12/17 08:56:42;;;;;;;0.70;0.60;;;22.40;41.70;;;;;;5012901;28;20029;-51
2021/12/17 08:59:16;;;;;;;0.82;0.70;;;22.50;41.70;;;;;;5030263;28;20021;-55
2021/12/17 09:02:03;;;;;;;0.65;0.60;;;22.60;41.60;;;;;;5028791;28;20052;-47
2021/12/17 09:04:31;;;;;;;1.50;0.70;;;22.60;41.50;;;;;;5027980;28;20344;-47
2021/12/17 09:06:58;;;;;;;1.23;0.90;;;22.60;41.50;;;;;;5041210;28;20056;-56
2021/12/17 09:09:24;;;;;;;1.20;0.63;;;22.70;41.40;;;;;;5025190;28;20025;-54
2021/12/17 09:11:51;;;;;;;1.02;0.63;;;22.70;41.30;;;;;;5030518;28;20435;-51
2021/12/17 09:14:24;;;;;;;0.98;0.60;;;22.80;41.20;;;;;;5032851;28;20040;-52
2021/12/17 09:16:57;;;;;;;1.05;0.52;;;22.80;41.10;;;;;;5042295;28;20017;-49
2021/12/17 09:19:27;;;;;;;0.90;0.52;;;22.90;41.10;;;;;;5027142;28;20028;-51
2021/12/17 09:21:57;;;;;;;1.52;0.75;;;22.90;41.00;;;;;;5036585;28;20021;-48
2021/12/17 09:24:45;;;;;;;0.73;0.50;;;23.00;40.90;;;;;;5032593;28;20417;-55
2021/12/17 09:27:16;;;;;;;0.95;0.65;;;23.00;40.90;;;;;;5042084;28;20048;-52
2021/12/17 09:30:19;;;;;;;0.45;0.40;;;23.00;40.80;;;;;;5023445;28;20025;-50
2021/12/17 09:32:45;;;;;;;0.55;0.50;;;23.00;40.80;;;;;;5043428;28;20033;-56
2021/12/17 09:35:12;;;;;;;0.60;0.50;;;23.00;40.70;;;;;;5043525;28;20107;-49
2021/12/17 09:37:39;;;;;;;0.80;0.45;;;23.00;40.60;;;;;;5042727;28;20344;-56
2021/12/17 09:40:09;;;;;;;0.85;0.50;;;23.00;40.50;;;;;;5044044;28;20395;-54
2021/12/17 09:42:36;;;;;;;0.80;0.55;;;23.00;40.50;;;;;;5046351;28;20408;-53
2021/12/17 09:45:04;;;;;;;0.60;0.40;;;23.00;40.40;;;;;;5044933;28;20021;-53
2021/12/17 09:47:30;;;;;;;1.02;0.40;;;23.00;40.30;;;;;;5028453;28;20025;-48
2021/12/17 09:49:58;;;;;;;0.50;0.50;;;23.00;40.30;;;;;;5042061;28;20025;-52
2021/12/17 09:52:24;;;;;;;0.60;0.40;;;23.00;40.20;;;;;;5047752;28;20017;-54
2021/12/17 09:54:51;;;;;;;1.02;0.60;;;23.00;40.20;;;;;;5043656;28;20112;-50
2021/12/17 09:57:19;;;;;;;1.00;0.55;;;22.90;40.10;;;;;;5044699;28;20314;-56
2021/12/17 09:59:45;;;;;;;0.57;0.35;;;22.80;40.10;;;;;;5040540;28;20063;-54
2021/12/17 10:02:12;;;;;;;0.75;0.57;;;22.70;40.00;;;;;;5044743;28;20043;-56
2021/12/17 10:04:42;;;;;;;0.77;0.50;;;22.70;40.00;;;;;;5043147;28;20025;-55
2021/12/17 10:07:19;;;;;;;0.50;0.50;;;22.60;40.00;;;;;;5043506;28;20033;-51
2021/12/17 10:09:54;;;;;;;1.38;0.50;;;22.60;40.00;;;;;;5044238;28;20447;-51
2021/12/17 10:12:28;;;;;;;1.15;0.60;;;22.50;40.10;;;;;;5042744;28;20040;-51
2021/12/17 10:15:21;;;;;;;0.82;0.52;;;22.50;40.10;;;;;;5046538;28;20017;-51
2021/12/17 10:17:53;;;;;;;0.50;0.38;;;22.50;40.10;;;;;;5019861;28;20033;-53
2021/12/17 10:20:20;;;;;;;0.43;0.40;;;22.40;40.10;;;;;;5041210;28;20029;-56
2021/12/17 10:22:54;;;;;;;0.38;0.38;;;22.30;40.10;;;;;;5041701;28;20107;-51
2021/12/17 10:25:21;;;;;;;0.70;0.30;;;22.30;40.10;;;;;;5045414;28;20017;-48
2021/12/17 10:27:47;;;;;;;0.50;0.40;;;22.30;40.20;;;;;;5042304;28;20355;-51
2021/12/17 10:30:19;;;;;;;1.75;0.30;;;22.20;40.10;;;;;;5041687;28;20021;-49
2021/12/17 10:32:50;;;;;;;0.28;0.28;;;22.20;40.70;;;;;;5041439;28;20079;-46
2021/12/17 10:35:27;;;;;;;0.47;0.40;;;22.20;40.20;;;;;;5043182;28;20025;-55
2021/12/17 10:37:57;;;;;;;0.60;0.40;;;22.20;40.30;;;;;;5045586;28;20017;-49
2021/12/17 10:40:36;;;;;;;0.63;0.50;;;22.20;40.50;;;;;;5045896;28;20032;-53
2021/12/17 10:43:14;;;;;;;1.20;0.38;;;22.10;40.60;;;;;;5043489;28;20025;-53
2021/12/17 10:45:44;;;;;;;0.43;0.30;;;22.10;40.80;;;;;;5040810;28;20340;-53
2021/12/17 10:48:24;;;;;;;0.20;0.20;;;22.10;40.90;;;;;;5044315;28;20033;-54
2021/12/17 10:51:01;;;;;;;1.02;0.40;;;22.20;40.90;;;;;;5043893;28;20025;-52
2021/12/17 10:53:27;;;;;;;0.30;0.30;;;22.20;41.00;;;;;;5042059;28;20021;-47
2021/12/17 10:55:54;;;;;;;0.85;0.47;;;22.10;41.00;;;;;;5042465;28;20064;-50
2021/12/17 10:58:21;;;;;;;0.60;0.25;;;22.10;41.00;;;;;;5045351;28;20108;-56
2021/12/17 11:01:07;;;;;;;0.70;0.47;;;22.10;41.10;;;;;;5046875;28;20128;-47
2021/12/17 11:03:43;;;;;;;0.35;0.35;;;22.10;41.20;;;;;;5044050;28;20017;-54
2021/12/17 11:06:09;;;;;;;0.60;0.50;;;22.10;41.30;;;;;;5043791;28;20021;-49
2021/12/17 11:08:37;;;;;;;0.10;0.10;;;22.10;41.30;;;;;;5041800;28;20040;-47
2021/12/17 11:11:10;;;;;;;1.08;0.45;;;22.10;41.30;;;;;;5040983;28;20333;-44
2021/12/17 11:13:51;;;;;;;0.32;0.30;;;22.10;41.30;;;;;;5044459;28;20061;-53
2021/12/17 11:16:19;;;;;;;0.95;0.40;;;22.10;41.30;;;;;;5044860;28;20100;-50
2021/12/17 11:18:46;;;;;;;0.88;0.30;;;22.10;41.30;;;;;;5047860;28;20451;-47
2021/12/17 11:21:12;;;;;;;0.50;0.30;;;22.10;41.30;;;;;;5041754;28;20028;-47
2021/12/17 11:23:38;;;;;;;0.40;0.30;;;22.10;41.40;;;;;;5044782;28;20020;-52
2021/12/17 11:26:05;;;;;;;0.60;0.40;;;22.10;41.40;;;;;;5046683;28;20104;-53
2021/12/17 11:28:32;;;;;;;0.55;0.50;;;22.10;41.40;;;;;;5042688;28;20338;-51
2021/12/17 11:30:58;;;;;;;2.60;0.40;;;22.10;41.40;;;;;;5040598;28;20321;-51
2021/12/17 11:33:24;;;;;;;0.70;0.35;;;22.10;41.40;;;;;;5040468;28;20033;-49
2021/12/17 11:35:51;;;;;;;0.40;0.30;;;22.00;41.30;;;;;;5044628;28;20452;-52
2021/12/17 11:38:27;;;;;;;0.55;0.30;;;22.10;41.40;;;;;;5041176;28;20037;-49
2021/12/17 11:41:13;;;;;;;1.85;0.40;;;22.00;41.30;;;;;;5040321;28;20017;-47
2021/12/17 11:43:57;;;;;;;0.85;0.28;;;22.00;41.30;;;;;;5044566;28;20331;-46
2021/12/17 11:46:28;;;;;;;0.28;0.20;;;22.00;41.30;;;;;;5045501;28;20017;-50
2021/12/17 11:49:09;;;;;;;0.50;0.32;;;22.00;41.40;;;;;;5038040;28;20033;-48
2021/12/17 11:51:36;;;;;;;0.40;0.30;;;22.00;41.40;;;;;;5039387;28;20033;-49
2021/12/17 11:54:16;;;;;;;0.20;0.20;;;21.90;41.30;;;;;;5045503;28;20029;-53
2021/12/17 11:56:53;;;;;;;0.25;0.20;;;22.00;41.40;;;;;;5038434;28;20037;-51
2021/12/17 11:59:24;;;;;;;1.00;0.30;;;21.90;41.30;;;;;;5038382;28;20029;-46
2021/12/17 12:01:50;;;;;;;0.40;0.13;;;22.00;41.30;;;;;;5036906;28;20116;-45
2021/12/17 12:04:36;;;;;;;0.25;0.25;;;21.90;41.20;;;;;;5042973;28;20664;-47
2021/12/17 12:07:11;;;;;;;0.25;0.25;;;22.00;41.20;;;;;;5039200;28;20025;-52
2021/12/17 12:09:57;;;;;;;0.28;0.28;;;21.90;41.20;;;;;;5043706;28;20024;-51
2021/12/17 12:12:45;;;;;;;0.98;0.20;;;21.90;41.10;;;;;;5044894;28;20039;-51
2021/12/17 12:15:17;;;;;;;2.28;0.20;;;21.90;41.00;;;;;;5036892;28;20029;-49
2021/12/17 12:17:58;;;;;;;0.70;0.40;;;21.90;41.00;;;;;;5040477;28;20032;-48
2021/12/17 12:20:49;;;;;;;0.47;0.30;;;21.90;40.90;;;;;;5052923;28;20025;-49
2021/12/17 12:23:27;;;;;;;0.25;0.20;;;21.90;40.90;;;;;;5049657;28;20124;-47
2021/12/17 12:26:02;;;;;;;0.38;0.20;;;21.90;40.90;;;;;;5045337;28;20036;-46
2021/12/17 12:28:47;;;;;;;1.23;0.20;;;21.90;40.90;;;;;;5045024;28;20044;-44
2021/12/17 12:31:13;;;;;;;;;;;21.90;40.90;;;;;;5048801;28;20063;-45
2021/12/17 12:34:04;;;;;;;0.30;0.20;;;21.90;41.00;;;;;;5049469;28;20323;-45
2021/12/17 12:36:57;;;;;;;0.40;0.30;;;21.90;41.00;;;;;;5037587;28;20025;-46
2021/12/17 12:39:35;;;;;;;0.20;0.20;;;21.90;40.90;;;;;;5052042;28;20080;-50
2021/12/17 12:42:06;;;;;;;0.22;0.22;;;21.90;40.90;;;;;;5055073;28;20028;-49
2021/12/17 12:44:44;;;;;;;0.57;0.20;;;21.90;40.90;;;;;;5050101;28;20021;-50
2021/12/17 12:47:34;;;;;;;1.08;0.30;;;21.90;40.90;;;;;;5043865;28;20062;-48
2021/12/17 12:50:06;;;;;;;0.80;0.10;;;21.90;40.90;;;;;;5024885;28;20033;-44
2021/12/17 12:52:32;;;;;;;0.57;0.25;;;21.90;40.90;;;;;;5038856;28;20025;-49
2021/12/17 12:55:32;;;;;;;0.50;0.28;;;21.90;40.80;;;;;;5043896;28;20025;-48
2021/12/17 12:57:58;;;;;;;0.25;0.20;;;21.90;40.70;;;;;;5024995;28;20041;-47
2021/12/17 13:00:27;;;;;;;0.57;0.40;;;21.90;40.80;;;;;;5047555;28;20018;-48
2021/12/17 13:02:55;;;;;;;0.28;0.20;;;21.90;40.70;;;;;;5036467;28;20018;-46
2021/12/17 13:05:21;;;;;;;0.90;0.22;;;21.90;40.70;;;;;;5049465;28;20509;-50
2021/12/17 13:07:50;;;;;;;0.40;0.20;;;21.90;40.70;;;;;;5041426;28;20033;-45
2021/12/17 13:10:29;;;;;;;0.30;0.30;;;21.90;40.60;;;;;;5026398;28;20348;-50
2021/12/17 13:13:30;;;;;;;0.10;0.10;;;21.90;40.50;;;;;;5050308;28;20436;-48
2021/12/17 13:24:13;;;;;;;0.63;0.30;;;22.00;40.50;;;;;;5036690;28;20025;-49
2021/12/17 13:26:43;;;;;;;1.10;0.20;;;22.00;40.50;;;;;;5052336;28;20502;-47
2021/12/17 13:29:18;;;;;;;0.38;0.30;;;22.10;40.60;;;;;;5037756;28;20116;-46
2021/12/17 13:31:51;;;;;;;1.70;0.30;;;22.10;40.50;;;;;;5055842;28;20036;-47
2021/12/17 13:34:35;;;;;;;3.58;0.43;;;22.20;40.50;;;;;;5036923;28;20023;-44
2021/12/17 13:37:11;;;;;;;;;;;22.20;40.50;;;;;;5041544;28;20029;-50
2021/12/17 13:40:07;;;;;;;0.30;0.20;;;22.20;40.50;;;;;;5037372;28;20248;-48
2021/12/17 13:42:36;;;;;;;0.70;0.30;;;22.20;40.50;;;;;;5053030;28;20511;-50
2021/12/17 13:45:21;;;;;;;0.20;0.20;;;22.20;40.60;;;;;;5055357;28;20036;-46
2021/12/17 13:47:50;;;;;;;0.93;0.10;;;22.20;40.70;;;;;;5043314;28;20037;-46
2021/12/17 13:50:23;;;;;;;0.30;0.20;;;22.20;40.80;;;;;;5037270;28;20036;-47
2021/12/17 13:52:55;;;;;;;0.57;0.20;;;22.20;40.80;;;;;;5040797;28;20342;-50
2021/12/17 13:55:31;;;;;;;0.60;0.30;;;22.20;40.90;;;;;;5071453;28;20036;-46
2021/12/17 13:57:58;;;;;;;0.20;0.20;;;22.20;41.00;;;;;;5070550;28;20034;-52
2021/12/17 14:00:30;;;;;;;0.80;0.20;;;22.20;41.10;;;;;;5056076;28;20107;-50
2021/12/17 14:02:57;;;;;;;0.47;0.20;;;22.20;41.10;;;;;;5053792;28;20024;-53
2021/12/17 14:05:40;;;;;;;0.30;0.30;;;22.20;41.10;;;;;;5055353;28;20043;-58
2021/12/17 14:08:08;;;;;;;0.50;0.20;;;22.20;41.10;;;;;;5039077;28;20029;-52
2021/12/17 14:10:36;;;;;;;1.20;0.30;;;22.20;41.30;;;;;;5050151;28;20032;-53
2021/12/17 14:13:03;;;;;;;0.47;0.20;;;22.20;41.20;;;;;;5036617;28;20105;-52
2021/12/17 14:15:32;;;;;;;0.70;0.40;;;22.20;41.10;;;;;;5038398;28;20021;-52
2021/12/17 14:18:09;;;;;;;1.38;0.40;;;22.20;41.10;;;;;;5037350;28;20036;-53
2021/12/17 14:20:41;;;;;;;0.35;0.20;;;22.20;40.90;;;;;;5039659;28;20049;-52
2021/12/17 14:23:13;;;;;;;0.22;0.20;;;22.20;41.00;;;;;;5043947;28;20429;-54
2021/12/17 14:25:42;;;;;;;0.30;0.22;;;22.10;40.90;;;;;;5044275;28;20025;-52
2021/12/17 14:28:23;;;;;;;0.20;0.13;;;22.10;40.90;;;;;;5023390;28;20041;-53
2021/12/17 14:31:02;;;;;;;0.20;0.20;;;22.10;40.80;;;;;;5042969;28;20025;-55
2021/12/17 14:33:36;;;;;;;0.40;0.30;;;22.10;40.70;;;;;;5052033;28;20167;-55
2021/12/17 14:36:14;;;;;;;0.50;0.30;;;22.10;40.70;;;;;;5049998;28;20320;-53
2021/12/17 14:38:53;;;;;;;0.43;0.20;;;22.00;40.60;;;;;;5036572;28;20349;-53
2021/12/17 14:41:27;;;;;;;1.10;0.20;;;22.00;40.50;;;;;;5050472;28;20029;-54
2021/12/17 14:44:00;;;;;;;;;;;22.00;40.50;;;;;;5034687;28;20029;-51
2021/12/17 14:46:31;;;;;;;1.55;0.40;;;21.90;40.50;;;;;;5043152;28;19908;-50
2021/12/17 15:05:05;;;;;;;1.05;0.40;;;21.80;41.00;;;;;;5011192;28;20052;-51
2021/12/17 15:07:31;;;;;;;0.35;0.28;;;21.80;40.40;;;;;;4996906;28;20038;-49
2021/12/17 15:09:57;;;;;;;1.30;0.30;;;21.80;40.50;;;;;;4996312;28;20032;-48
2021/12/17 15:14:58;;;;;;;0.30;0.30;;;21.80;40.50;;;;;;5004215;28;20042;-52
2021/12/17 15:17:23;;;;;;;0.90;0.40;;;21.80;40.40;;;;;;5007596;28;20058;-54
2021/12/17 15:19:49;;;;;;;0.28;0.28;;;21.70;40.40;;;;;;4998721;28;20057;-50
2021/12/17 15:22:15;;;;;;;0.32;0.30;;;21.80;40.60;;;;;;5001546;28;20487;-54
2021/12/17 15:24:42;;;;;;;1.33;0.43;;;21.80;40.70;;;;;;5012105;28;20018;-48
2021/12/17 15:27:08;;;;;;;0.47;0.30;;;21.80;40.80;;;;;;4997981;28;20038;-51
2021/12/17 15:29:33;;;;;;;1.88;0.30;;;21.80;40.90;;;;;;5010382;28;20105;-49
2021/12/17 15:31:59;;;;;;;0.28;0.28;;;21.80;41.00;;;;;;5001776;28;20034;-45
2021/12/17 15:34:26;;;;;;;0.60;0.40;;;21.80;41.00;;;;;;4996956;28;20045;-52
2021/12/17 15:36:53;;;;;;;0.55;0.20;;;21.80;41.10;;;;;;5012074;28;20376;-46
2021/12/17 15:39:19;;;;;;;0.57;0.30;;;21.80;41.10;;;;;;4994639;28;20117;-49
2021/12/17 15:41:45;;;;;;;0.77;0.50;;;21.80;41.20;;;;;;5003292;28;20414;-47
2021/12/17 15:44:11;;;;;;;0.70;0.50;;;21.80;41.30;;;;;;5009005;28;20453;-47
2021/12/17 15:46:38;;;;;;;0.45;0.40;;;21.80;41.30;;;;;;5012668;28;20026;-47
2021/12/17 15:49:05;;;;;;;0.85;0.43;;;21.80;41.40;;;;;;5011121;28;20030;-47
2021/12/17 15:51:32;;;;;;;0.57;0.30;;;21.80;41.50;;;;;;5010989;28;20030;-50
2021/12/17 15:53:58;;;;;;;1.23;0.52;;;21.80;41.50;;;;;;4997994;28;20156;-50
2021/12/17 15:56:25;;;;;;;0.65;0.40;;;21.80;41.50;;;;;;5005348;28;20037;-50
2021/12/17 15:58:50;;;;;;;1.05;0.40;;;21.80;41.60;;;;;;5016114;28;20032;-49
2021/12/17 16:01:16;;;;;;;0.60;0.43;;;21.80;41.70;;;;;;5031189;28;20401;-55
2021/12/17 16:03:43;;;;;;;2.10;0.40;;;21.80;41.70;;;;;;5044562;28;20363;-55
2021/12/17 16:06:10;;;;;;;0.98;0.50;;;21.80;41.70;;;;;;5021233;28;20050;-46
2021/12/17 16:08:44;;;;;;;0.50;0.40;;;21.80;41.80;;;;;;5042747;28;20176;-54
2021/12/17 16:21:40;;;;;;;0.70;0.32;;;21.80;41.90;;;;;;5039816;28;20049;-50
2021/12/17 16:24:06;;;;;;;0.52;0.45;;;21.80;41.90;;;;;;5046858;28;20024;-52
2021/12/17 16:26:32;;;;;;;1.00;0.47;;;21.80;41.90;;;;;;5049890;28;20429;-50
2021/12/17 16:28:58;;;;;;;0.40;0.35;;;21.80;41.90;;;;;;5048119;28;20106;-49
2021/12/17 16:31:26;;;;;;;0.77;0.60;;;21.80;41.90;;;;;;5050771;28;20021;-49
2021/12/17 16:34:01;;;;;;;0.50;0.40;;;21.80;42.50;;;;;;5044896;28;20021;-46